sensor_id;sensor_type;location;lat;lon;timestamp;P1;durP1;ratioP1;P2;durP2;ratioP2
9968;SDS011;5025;48.890;9.278;2023-11-19T00:02:06;1.80;;;1.70;;
9968;SDS011;5025;48.890;9.278;2023-11-19T00:04:33;1.50;;;1.50;;
9968;SDS011;5025;48.890;9.278;2023-11-19T00:06:59;1.87;;;1.77;;
9968;SDS011;5025;48.890;9.278;2023-11-19T00:09:28;1.70;;;1.60;;
9968;SDS011;5025;48.890;9.278;2023-11-19T00:11:54;1.90;;;1.80;;
9968;SDS011;5025;48.890;9.278;2023-11-19T00:14:19;2.00;;;1.60;;
9968;SDS011;5025;48.890;9.278;2023-11-19T00:16:44;2.03;;;1.90;;
9968;SDS011;5025;48.890;9.278;2023-11-19T00:19:09;2.13;;;1.93;;
9968;SDS011;5025;48.890;9.278;2023-11-19T00:21:35;2.70;;;1.97;;
9968;SDS011;5025;48.890;9.278;2023-11-19T00:24:01;1.90;;;1.80;;
9968;SDS011;5025;48.890;9.278;2023-11-19T00:26:26;1.70;;;1.60;;
9968;SDS011;5025;48.890;9.278;2023-11-19T00:28:52;2.13;;;1.80;;
9968;SDS011;5025;48.890;9.278;2023-11-19T00:31:17;2.07;;;1.97;;
9968;SDS011;5025;48.890;9.278;2023-11-19T00:33:43;2.00;;;1.90;;
9968;SDS011;5025;48.890;9.278;2023-11-19T00:36:08;1.77;;;1.70;;
9968;SDS011;5025;48.890;9.278;2023-11-19T00:38:34;1.70;;;1.60;;
9968;SDS011;5025;48.890;9.278;2023-11-19T00:40:59;1.50;;;1.40;;
9968;SDS011;5025;48.890;9.278;2023-11-19T00:43:24;1.80;;;1.70;;
9968;SDS011;5025;48.890;9.278;2023-11-19T00:45:51;1.77;;;1.67;;
9968;SDS011;5025;48.890;9.278;2023-11-19T00:48:16;1.67;;;1.57;;
9968;SDS011;5025;48.890;9.278;2023-11-19T00:50:42;1.70;;;1.60;;
9968;SDS011;5025;48.890;9.278;2023-11-19T00:53:09;2.20;;;1.60;;
9968;SDS011;5025;48.890;9.278;2023-11-19T00:55:34;1.40;;;1.40;;
9968;SDS011;5025;48.890;9.278;2023-11-19T00:58:00;1.60;;;1.50;;
9968;SDS011;5025;48.890;9.278;2023-11-19T01:00:25;1.60;;;1.50;;
9968;SDS011;5025;48.890;9.278;2023-11-19T01:02:52;1.70;;;1.60;;
9968;SDS011;5025;48.890;9.278;2023-11-19T01:05:17;1.20;;;1.20;;
9968;SDS011;5025;48.890;9.278;2023-11-19T01:07:46;1.40;;;1.30;;
9968;SDS011;5025;48.890;9.278;2023-11-19T01:10:12;1.70;;;1.60;;
9968;SDS011;5025;48.890;9.278;2023-11-19T01:12:37;1.43;;;1.43;;
9968;SDS011;5025;48.890;9.278;2023-11-19T01:15:03;1.40;;;1.40;;
9968;SDS011;5025;48.890;9.278;2023-11-19T01:17:29;1.33;;;1.33;;
9968;SDS011;5025;48.890;9.278;2023-11-19T01:19:56;1.37;;;1.37;;
9968;SDS011;5025;48.890;9.278;2023-11-19T01:22:21;1.40;;;1.40;;
9968;SDS011;5025;48.890;9.278;2023-11-19T01:24:47;1.60;;;1.50;;
9968;SDS011;5025;48.890;9.278;2023-11-19T01:27:12;1.60;;;1.50;;
9968;SDS011;5025;48.890;9.278;2023-11-19T01:29:37;3.20;;;2.00;;
9968;SDS011;5025;48.890;9.278;2023-11-19T01:32:03;1.83;;;1.73;;
9968;SDS011;5025;48.890;9.278;2023-11-19T01:34:29;2.03;;;1.93;;
9968;SDS011;5025;48.890;9.278;2023-11-19T01:36:54;1.80;;;1.70;;
9968;SDS011;5025;48.890;9.278;2023-11-19T01:39:19;1.70;;;1.60;;
9968;SDS011;5025;48.890;9.278;2023-11-19T01:41:46;1.30;;;1.30;;
9968;SDS011;5025;48.890;9.278;2023-11-19T01:44:11;1.30;;;1.30;;
9968;SDS011;5025;48.890;9.278;2023-11-19T01:46:42;1.47;;;1.40;;
9968;SDS011;5025;48.890;9.278;2023-11-19T01:49:10;1.33;;;1.33;;
9968;SDS011;5025;48.890;9.278;2023-11-19T01:51:36;1.27;;;1.27;;
9968;SDS011;5025;48.890;9.278;2023-11-19T01:54:03;1.00;;;1.00;;
9968;SDS011;5025;48.890;9.278;2023-11-19T01:56:28;1.30;;;1.30;;
9968;SDS011;5025;48.890;9.278;2023-11-19T01:58:55;1.30;;;1.30;;
9968;SDS011;5025;48.890;9.278;2023-11-19T02:01:21;1.20;;;1.20;;
9968;SDS011;5025;48.890;9.278;2023-11-19T02:03:47;1.23;;;1.23;;
9968;SDS011;5025;48.890;9.278;2023-11-19T02:06:12;1.10;;;1.10;;
9968;SDS011;5025;48.890;9.278;2023-11-19T02:08:38;1.20;;;1.20;;
9968;SDS011;5025;48.890;9.278;2023-11-19T02:11:04;1.70;;;1.60;;
9968;SDS011;5025;48.890;9.278;2023-11-19T02:13:31;1.20;;;1.20;;
9968;SDS011;5025;48.890;9.278;2023-11-19T02:15:57;1.70;;;1.20;;
9968;SDS011;5025;48.890;9.278;2023-11-19T02:18:23;1.20;;;1.20;;
9968;SDS011;5025;48.890;9.278;2023-11-19T02:20:52;1.03;;;1.03;;
9968;SDS011;5025;48.890;9.278;2023-11-19T02:23:25;1.10;;;1.10;;
9968;SDS011;5025;48.890;9.278;2023-11-19T02:28:38;1.23;;;1.17;;
9968;SDS011;5025;48.890;9.278;2023-11-19T02:31:05;1.03;;;1.03;;
9968;SDS011;5025;48.890;9.278;2023-11-19T02:33:34;0.90;;;0.90;;
9968;SDS011;5025;48.890;9.278;2023-11-19T02:36:00;0.93;;;0.93;;
9968;SDS011;5025;48.890;9.278;2023-11-19T02:38:26;0.80;;;0.80;;
9968;SDS011;5025;48.890;9.278;2023-11-19T02:40:51;1.00;;;0.80;;
9968;SDS011;5025;48.890;9.278;2023-11-19T02:43:16;0.83;;;0.83;;
9968;SDS011;5025;48.890;9.278;2023-11-19T02:45:42;1.00;;;1.00;;
9968;SDS011;5025;48.890;9.278;2023-11-19T02:48:10;0.90;;;0.90;;
9968;SDS011;5025;48.890;9.278;2023-11-19T02:50:36;0.93;;;0.93;;
9968;SDS011;5025;48.890;9.278;2023-11-19T02:53:01;0.80;;;0.80;;
9968;SDS011;5025;48.890;9.278;2023-11-19T02:55:27;0.60;;;0.60;;
9968;SDS011;5025;48.890;9.278;2023-11-19T02:57:55;0.60;;;0.60;;
9968;SDS011;5025;48.890;9.278;2023-11-19T03:00:23;0.90;;;0.90;;
9968;SDS011;5025;48.890;9.278;2023-11-19T03:02:50;0.83;;;0.83;;
9968;SDS011;5025;48.890;9.278;2023-11-19T03:05:30;0.67;;;0.67;;
9968;SDS011;5025;48.890;9.278;2023-11-19T03:07:55;0.67;;;0.67;;
9968;SDS011;5025;48.890;9.278;2023-11-19T03:10:21;0.70;;;0.70;;
9968;SDS011;5025;48.890;9.278;2023-11-19T03:12:46;0.87;;;0.87;;
9968;SDS011;5025;48.890;9.278;2023-11-19T03:15:12;0.80;;;0.80;;
9968;SDS011;5025;48.890;9.278;2023-11-19T03:17:40;0.80;;;0.80;;
9968;SDS011;5025;48.890;9.278;2023-11-19T03:20:08;0.70;;;0.70;;
9968;SDS011;5025;48.890;9.278;2023-11-19T03:22:41;0.60;;;0.60;;
9968;SDS011;5025;48.890;9.278;2023-11-19T03:25:08;0.70;;;0.70;;
9968;SDS011;5025;48.890;9.278;2023-11-19T03:27:37;0.60;;;0.60;;
9968;SDS011;5025;48.890;9.278;2023-11-19T03:30:04;0.83;;;0.83;;
9968;SDS011;5025;48.890;9.278;2023-11-19T03:32:34;0.77;;;0.77;;
9968;SDS011;5025;48.890;9.278;2023-11-19T03:35:00;1.10;;;1.10;;
9968;SDS011;5025;48.890;9.278;2023-11-19T03:37:26;0.83;;;0.83;;
9968;SDS011;5025;48.890;9.278;2023-11-19T03:39:53;0.97;;;0.93;;
9968;SDS011;5025;48.890;9.278;2023-11-19T03:42:19;1.10;;;1.10;;
9968;SDS011;5025;48.890;9.278;2023-11-19T03:44:45;1.20;;;1.20;;
9968;SDS011;5025;48.890;9.278;2023-11-19T03:47:11;1.03;;;1.03;;
9968;SDS011;5025;48.890;9.278;2023-11-19T03:49:36;1.00;;;1.00;;
9968;SDS011;5025;48.890;9.278;2023-11-19T03:52:01;1.20;;;1.10;;
9968;SDS011;5025;48.890;9.278;2023-11-19T03:54:27;1.00;;;1.00;;
9968;SDS011;5025;48.890;9.278;2023-11-19T03:56:52;1.10;;;1.10;;
9968;SDS011;5025;48.890;9.278;2023-11-19T03:59:18;1.40;;;1.40;;
9968;SDS011;5025;48.890;9.278;2023-11-19T04:01:45;1.57;;;1.50;;
9968;SDS011;5025;48.890;9.278;2023-11-19T04:04:10;1.20;;;1.20;;
9968;SDS011;5025;48.890;9.278;2023-11-19T04:06:36;1.20;;;1.20;;
9968;SDS011;5025;48.890;9.278;2023-11-19T04:09:01;1.07;;;1.07;;
9968;SDS011;5025;48.890;9.278;2023-11-19T04:11:26;1.50;;;1.40;;
9968;SDS011;5025;48.890;9.278;2023-11-19T04:13:52;1.30;;;1.30;;
9968;SDS011;5025;48.890;9.278;2023-11-19T04:16:18;1.40;;;1.40;;
9968;SDS011;5025;48.890;9.278;2023-11-19T04:18:43;1.47;;;1.40;;
9968;SDS011;5025;48.890;9.278;2023-11-19T04:21:08;1.23;;;1.23;;
9968;SDS011;5025;48.890;9.278;2023-11-19T04:23:33;1.03;;;1.03;;
9968;SDS011;5025;48.890;9.278;2023-11-19T04:26:01;1.13;;;1.13;;
9968;SDS011;5025;48.890;9.278;2023-11-19T04:28:27;1.20;;;1.20;;
9968;SDS011;5025;48.890;9.278;2023-11-19T04:30:53;1.30;;;1.30;;
9968;SDS011;5025;48.890;9.278;2023-11-19T04:33:18;1.27;;;1.27;;
9968;SDS011;5025;48.890;9.278;2023-11-19T04:35:43;1.13;;;1.13;;
9968;SDS011;5025;48.890;9.278;2023-11-19T04:38:08;1.17;;;1.17;;
9968;SDS011;5025;48.890;9.278;2023-11-19T04:40:33;1.20;;;1.20;;
9968;SDS011;5025;48.890;9.278;2023-11-19T04:42:59;1.17;;;1.17;;
9968;SDS011;5025;48.890;9.278;2023-11-19T04:45:24;1.10;;;1.10;;
9968;SDS011;5025;48.890;9.278;2023-11-19T04:47:49;1.10;;;1.10;;
9968;SDS011;5025;48.890;9.278;2023-11-19T04:50:15;1.17;;;1.17;;
9968;SDS011;5025;48.890;9.278;2023-11-19T04:52:40;1.17;;;1.17;;
9968;SDS011;5025;48.890;9.278;2023-11-19T04:55:06;1.40;;;1.30;;
9968;SDS011;5025;48.890;9.278;2023-11-19T04:57:32;1.30;;;1.30;;
9968;SDS011;5025;48.890;9.278;2023-11-19T04:59:57;1.20;;;1.20;;
9968;SDS011;5025;48.890;9.278;2023-11-19T05:02:23;1.07;;;1.07;;
9968;SDS011;5025;48.890;9.278;2023-11-19T05:04:48;1.40;;;1.40;;
9968;SDS011;5025;48.890;9.278;2023-11-19T05:07:14;1.33;;;1.33;;
9968;SDS011;5025;48.890;9.278;2023-11-19T05:09:39;1.20;;;1.20;;
9968;SDS011;5025;48.890;9.278;2023-11-19T05:12:05;1.30;;;1.30;;
9968;SDS011;5025;48.890;9.278;2023-11-19T05:14:33;1.47;;;1.37;;
9968;SDS011;5025;48.890;9.278;2023-11-19T05:16:58;1.40;;;1.40;;
9968;SDS011;5025;48.890;9.278;2023-11-19T05:19:24;1.27;;;1.17;;
9968;SDS011;5025;48.890;9.278;2023-11-19T05:21:49;1.40;;;1.30;;
9968;SDS011;5025;48.890;9.278;2023-11-19T05:24:17;1.17;;;1.17;;
9968;SDS011;5025;48.890;9.278;2023-11-19T05:26:42;1.40;;;1.20;;
9968;SDS011;5025;48.890;9.278;2023-11-19T05:29:07;1.50;;;1.40;;
9968;SDS011;5025;48.890;9.278;2023-11-19T05:31:33;1.27;;;1.27;;
9968;SDS011;5025;48.890;9.278;2023-11-19T05:33:58;1.20;;;1.20;;
9968;SDS011;5025;48.890;9.278;2023-11-19T05:36:23;1.23;;;1.20;;
9968;SDS011;5025;48.890;9.278;2023-11-19T05:38:48;1.00;;;1.00;;
9968;SDS011;5025;48.890;9.278;2023-11-19T05:41:14;1.33;;;1.23;;
9968;SDS011;5025;48.890;9.278;2023-11-19T05:43:39;1.00;;;1.00;;
9968;SDS011;5025;48.890;9.278;2023-11-19T05:46:05;1.10;;;1.10;;
9968;SDS011;5025;48.890;9.278;2023-11-19T05:48:31;1.07;;;1.07;;
9968;SDS011;5025;48.890;9.278;2023-11-19T05:50:57;0.90;;;0.90;;
9968;SDS011;5025;48.890;9.278;2023-11-19T05:53:22;1.00;;;1.00;;
9968;SDS011;5025;48.890;9.278;2023-11-19T05:55:47;0.90;;;0.90;;
9968;SDS011;5025;48.890;9.278;2023-11-19T05:58:23;0.90;;;0.90;;
9968;SDS011;5025;48.890;9.278;2023-11-19T06:00:50;0.80;;;0.80;;
9968;SDS011;5025;48.890;9.278;2023-11-19T06:03:16;0.90;;;0.90;;
9968;SDS011;5025;48.890;9.278;2023-11-19T06:05:43;1.63;;;0.83;;
9968;SDS011;5025;48.890;9.278;2023-11-19T06:08:09;0.90;;;0.90;;
9968;SDS011;5025;48.890;9.278;2023-11-19T06:10:34;1.03;;;1.03;;
9968;SDS011;5025;48.890;9.278;2023-11-19T06:13:00;1.93;;;1.83;;
9968;SDS011;5025;48.890;9.278;2023-11-19T06:15:29;1.17;;;1.17;;
9968;SDS011;5025;48.890;9.278;2023-11-19T06:17:55;1.00;;;1.00;;
9968;SDS011;5025;48.890;9.278;2023-11-19T06:20:20;1.10;;;1.10;;
9968;SDS011;5025;48.890;9.278;2023-11-19T06:22:45;1.20;;;1.20;;
9968;SDS011;5025;48.890;9.278;2023-11-19T06:25:11;1.53;;;1.53;;
9968;SDS011;5025;48.890;9.278;2023-11-19T06:27:39;1.20;;;1.20;;
9968;SDS011;5025;48.890;9.278;2023-11-19T06:30:05;1.20;;;1.20;;
9968;SDS011;5025;48.890;9.278;2023-11-19T06:32:31;0.90;;;0.90;;
9968;SDS011;5025;48.890;9.278;2023-11-19T06:34:57;0.90;;;0.90;;
9968;SDS011;5025;48.890;9.278;2023-11-19T06:37:22;0.80;;;0.80;;
9968;SDS011;5025;48.890;9.278;2023-11-19T06:39:48;0.57;;;0.57;;
9968;SDS011;5025;48.890;9.278;2023-11-19T06:42:13;0.63;;;0.63;;
9968;SDS011;5025;48.890;9.278;2023-11-19T06:44:39;0.83;;;0.70;;
9968;SDS011;5025;48.890;9.278;2023-11-19T06:47:04;0.90;;;0.90;;
9968;SDS011;5025;48.890;9.278;2023-11-19T06:49:30;0.70;;;0.70;;
9968;SDS011;5025;48.890;9.278;2023-11-19T06:51:55;0.90;;;0.90;;
9968;SDS011;5025;48.890;9.278;2023-11-19T06:54:20;1.00;;;1.00;;
9968;SDS011;5025;48.890;9.278;2023-11-19T06:56:46;1.17;;;1.00;;
9968;SDS011;5025;48.890;9.278;2023-11-19T06:59:11;1.10;;;1.10;;
9968;SDS011;5025;48.890;9.278;2023-11-19T07:01:36;0.90;;;0.90;;
9968;SDS011;5025;48.890;9.278;2023-11-19T07:04:02;1.00;;;1.00;;
9968;SDS011;5025;48.890;9.278;2023-11-19T07:06:34;0.90;;;0.90;;
9968;SDS011;5025;48.890;9.278;2023-11-19T07:08:59;1.57;;;1.50;;
9968;SDS011;5025;48.890;9.278;2023-11-19T07:11:34;1.10;;;1.10;;
9968;SDS011;5025;48.890;9.278;2023-11-19T07:14:00;1.17;;;1.17;;
9968;SDS011;5025;48.890;9.278;2023-11-19T07:16:25;1.10;;;1.10;;
9968;SDS011;5025;48.890;9.278;2023-11-19T07:18:50;0.80;;;0.80;;
9968;SDS011;5025;48.890;9.278;2023-11-19T07:21:16;0.77;;;0.77;;
9968;SDS011;5025;48.890;9.278;2023-11-19T07:23:41;0.80;;;0.80;;
9968;SDS011;5025;48.890;9.278;2023-11-19T07:26:06;0.70;;;0.70;;
9968;SDS011;5025;48.890;9.278;2023-11-19T07:28:33;1.20;;;0.60;;
9968;SDS011;5025;48.890;9.278;2023-11-19T07:30:58;0.60;;;0.60;;
9968;SDS011;5025;48.890;9.278;2023-11-19T07:33:24;0.60;;;0.60;;
9968;SDS011;5025;48.890;9.278;2023-11-19T07:35:49;0.40;;;0.40;;
9968;SDS011;5025;48.890;9.278;2023-11-19T07:38:15;0.60;;;0.60;;
9968;SDS011;5025;48.890;9.278;2023-11-19T07:40:41;1.00;;;1.00;;
9968;SDS011;5025;48.890;9.278;2023-11-19T07:43:06;0.90;;;0.90;;
9968;SDS011;5025;48.890;9.278;2023-11-19T07:45:32;1.03;;;0.97;;
9968;SDS011;5025;48.890;9.278;2023-11-19T07:47:57;0.87;;;0.87;;
9968;SDS011;5025;48.890;9.278;2023-11-19T07:50:22;0.83;;;0.83;;
9968;SDS011;5025;48.890;9.278;2023-11-19T07:52:48;0.90;;;0.90;;
9968;SDS011;5025;48.890;9.278;2023-11-19T07:55:13;1.17;;;1.03;;
9968;SDS011;5025;48.890;9.278;2023-11-19T07:57:38;0.87;;;0.70;;
9968;SDS011;5025;48.890;9.278;2023-11-19T08:00:04;0.50;;;0.50;;
9968;SDS011;5025;48.890;9.278;2023-11-19T08:02:29;0.63;;;0.63;;
9968;SDS011;5025;48.890;9.278;2023-11-19T08:04:55;0.57;;;0.57;;
9968;SDS011;5025;48.890;9.278;2023-11-19T08:07:20;0.60;;;0.60;;
9968;SDS011;5025;48.890;9.278;2023-11-19T08:09:47;1.17;;;0.70;;
9968;SDS011;5025;48.890;9.278;2023-11-19T08:12:12;0.97;;;0.60;;
9968;SDS011;5025;48.890;9.278;2023-11-19T08:14:40;0.67;;;0.67;;
9968;SDS011;5025;48.890;9.278;2023-11-19T08:17:06;0.63;;;0.63;;
9968;SDS011;5025;48.890;9.278;2023-11-19T08:19:31;0.67;;;0.60;;
9968;SDS011;5025;48.890;9.278;2023-11-19T08:21:56;1.13;;;0.70;;
9968;SDS011;5025;48.890;9.278;2023-11-19T08:24:22;0.63;;;0.63;;
9968;SDS011;5025;48.890;9.278;2023-11-19T08:26:47;0.80;;;0.70;;
9968;SDS011;5025;48.890;9.278;2023-11-19T08:29:12;1.10;;;1.10;;
9968;SDS011;5025;48.890;9.278;2023-11-19T08:31:38;1.17;;;1.17;;
9968;SDS011;5025;48.890;9.278;2023-11-19T08:34:03;0.73;;;0.73;;
9968;SDS011;5025;48.890;9.278;2023-11-19T08:36:29;0.70;;;0.70;;
9968;SDS011;5025;48.890;9.278;2023-11-19T08:38:56;0.70;;;0.70;;
9968;SDS011;5025;48.890;9.278;2023-11-19T08:41:21;0.70;;;0.70;;
9968;SDS011;5025;48.890;9.278;2023-11-19T08:43:47;0.73;;;0.73;;
9968;SDS011;5025;48.890;9.278;2023-11-19T08:46:12;0.90;;;0.90;;
9968;SDS011;5025;48.890;9.278;2023-11-19T08:48:38;1.10;;;1.10;;
9968;SDS011;5025;48.890;9.278;2023-11-19T08:51:03;1.00;;;0.90;;
9968;SDS011;5025;48.890;9.278;2023-11-19T08:53:29;0.90;;;0.90;;
9968;SDS011;5025;48.890;9.278;2023-11-19T08:55:54;0.70;;;0.70;;
9968;SDS011;5025;48.890;9.278;2023-11-19T08:58:20;1.03;;;1.03;;
9968;SDS011;5025;48.890;9.278;2023-11-19T09:00:45;1.57;;;1.47;;
9968;SDS011;5025;48.890;9.278;2023-11-19T09:03:10;1.13;;;1.13;;
9968;SDS011;5025;48.890;9.278;2023-11-19T09:05:35;1.00;;;1.00;;
9968;SDS011;5025;48.890;9.278;2023-11-19T09:08:01;1.60;;;1.07;;
9968;SDS011;5025;48.890;9.278;2023-11-19T09:10:27;1.10;;;1.10;;
9968;SDS011;5025;48.890;9.278;2023-11-19T09:12:52;1.00;;;1.00;;
9968;SDS011;5025;48.890;9.278;2023-11-19T09:15:17;0.90;;;0.90;;
9968;SDS011;5025;48.890;9.278;2023-11-19T09:17:43;1.17;;;1.17;;
9968;SDS011;5025;48.890;9.278;2023-11-19T09:20:08;1.20;;;1.20;;
9968;SDS011;5025;48.890;9.278;2023-11-19T09:22:37;1.33;;;1.33;;
9968;SDS011;5025;48.890;9.278;2023-11-19T09:25:02;1.70;;;1.60;;
9968;SDS011;5025;48.890;9.278;2023-11-19T09:27:27;2.63;;;2.43;;
9968;SDS011;5025;48.890;9.278;2023-11-19T09:29:53;1.87;;;1.77;;
9968;SDS011;5025;48.890;9.278;2023-11-19T09:32:22;2.00;;;1.90;;
9968;SDS011;5025;48.890;9.278;2023-11-19T09:34:47;1.50;;;1.43;;
9968;SDS011;5025;48.890;9.278;2023-11-19T09:37:13;1.30;;;1.30;;
9968;SDS011;5025;48.890;9.278;2023-11-19T09:39:38;1.50;;;1.40;;
9968;SDS011;5025;48.890;9.278;2023-11-19T09:42:03;1.10;;;1.10;;
9968;SDS011;5025;48.890;9.278;2023-11-19T09:44:29;1.03;;;1.03;;
9968;SDS011;5025;48.890;9.278;2023-11-19T09:46:54;1.73;;;1.50;;
9968;SDS011;5025;48.890;9.278;2023-11-19T09:49:23;1.40;;;1.30;;
9968;SDS011;5025;48.890;9.278;2023-11-19T09:51:51;2.03;;;1.80;;
9968;SDS011;5025;48.890;9.278;2023-11-19T09:54:16;1.77;;;1.67;;
9968;SDS011;5025;48.890;9.278;2023-11-19T09:56:42;2.80;;;2.53;;
9968;SDS011;5025;48.890;9.278;2023-11-19T09:59:08;2.30;;;2.10;;
9968;SDS011;5025;48.890;9.278;2023-11-19T10:01:35;2.47;;;2.20;;
9968;SDS011;5025;48.890;9.278;2023-11-19T10:04:03;2.33;;;2.07;;
9968;SDS011;5025;48.890;9.278;2023-11-19T10:06:28;2.00;;;1.80;;
9968;SDS011;5025;48.890;9.278;2023-11-19T10:08:54;1.80;;;1.70;;
9968;SDS011;5025;48.890;9.278;2023-11-19T10:11:20;1.63;;;1.53;;
9968;SDS011;5025;48.890;9.278;2023-11-19T10:13:45;2.07;;;1.97;;
9968;SDS011;5025;48.890;9.278;2023-11-19T10:16:13;1.80;;;1.70;;
9968;SDS011;5025;48.890;9.278;2023-11-19T10:18:45;2.20;;;1.53;;
9968;SDS011;5025;48.890;9.278;2023-11-19T10:21:16;1.40;;;1.40;;
9968;SDS011;5025;48.890;9.278;2023-11-19T10:26:22;1.33;;;1.33;;
9968;SDS011;5025;48.890;9.278;2023-11-19T10:28:47;1.37;;;1.30;;
9968;SDS011;5025;48.890;9.278;2023-11-19T10:31:14;3.63;;;3.33;;
9968;SDS011;5025;48.890;9.278;2023-11-19T10:33:40;3.27;;;3.00;;
9968;SDS011;5025;48.890;9.278;2023-11-19T10:36:05;2.50;;;2.40;;
9968;SDS011;5025;48.890;9.278;2023-11-19T10:38:31;1.40;;;1.40;;
9968;SDS011;5025;48.890;9.278;2023-11-19T10:40:57;1.20;;;1.20;;
9968;SDS011;5025;48.890;9.278;2023-11-19T10:43:22;1.93;;;1.63;;
9968;SDS011;5025;48.890;9.278;2023-11-19T10:45:48;1.80;;;1.70;;
9968;SDS011;5025;48.890;9.278;2023-11-19T10:48:14;1.70;;;1.60;;
9968;SDS011;5025;48.890;9.278;2023-11-19T10:50:40;2.03;;;1.73;;
9968;SDS011;5025;48.890;9.278;2023-11-19T10:53:07;1.87;;;1.30;;
9968;SDS011;5025;48.890;9.278;2023-11-19T10:55:34;1.13;;;1.10;;
9968;SDS011;5025;48.890;9.278;2023-11-19T10:58:03;1.70;;;1.60;;
9968;SDS011;5025;48.890;9.278;2023-11-19T11:00:30;1.67;;;1.20;;
9968;SDS011;5025;48.890;9.278;2023-11-19T11:03:16;1.40;;;1.13;;
9968;SDS011;5025;48.890;9.278;2023-11-19T11:05:49;1.10;;;1.00;;
9968;SDS011;5025;48.890;9.278;2023-11-19T11:08:16;1.20;;;1.10;;
9968;SDS011;5025;48.890;9.278;2023-11-19T11:10:43;1.40;;;1.30;;
9968;SDS011;5025;48.890;9.278;2023-11-19T11:13:10;1.80;;;1.10;;
9968;SDS011;5025;48.890;9.278;2023-11-19T11:15:38;1.20;;;1.10;;
9968;SDS011;5025;48.890;9.278;2023-11-19T11:18:04;1.93;;;1.83;;
9968;SDS011;5025;48.890;9.278;2023-11-19T11:20:32;1.60;;;1.50;;
9968;SDS011;5025;48.890;9.278;2023-11-19T11:29:10;1.03;;;1.00;;
9968;SDS011;5025;48.890;9.278;2023-11-19T11:31:51;1.40;;;1.00;;
9968;SDS011;5025;48.890;9.278;2023-11-19T11:37:10;1.87;;;1.20;;
9968;SDS011;5025;48.890;9.278;2023-11-19T11:39:49;0.90;;;0.90;;
9968;SDS011;5025;48.890;9.278;2023-11-19T11:42:30;1.90;;;1.30;;
9968;SDS011;5025;48.890;9.278;2023-11-19T11:50:14;1.60;;;1.20;;
9968;SDS011;5025;48.890;9.278;2023-11-19T11:53:13;1.53;;;1.00;;
9968;SDS011;5025;48.890;9.278;2023-11-19T11:55:37;1.13;;;1.03;;
9968;SDS011;5025;48.890;9.278;2023-11-19T11:58:20;1.30;;;1.00;;
9968;SDS011;5025;48.890;9.278;2023-11-19T12:00:46;0.83;;;0.73;;
9968;SDS011;5025;48.890;9.278;2023-11-19T12:03:12;2.27;;;1.13;;
9968;SDS011;5025;48.890;9.278;2023-11-19T12:05:41;1.70;;;1.13;;
9968;SDS011;5025;48.890;9.278;2023-11-19T12:08:08;1.27;;;1.10;;
9968;SDS011;5025;48.890;9.278;2023-11-19T12:10:37;1.60;;;1.17;;
9968;SDS011;5025;48.890;9.278;2023-11-19T12:13:09;1.20;;;0.90;;
9968;SDS011;5025;48.890;9.278;2023-11-19T12:16:07;1.87;;;1.17;;
9968;SDS011;5025;48.890;9.278;2023-11-19T12:18:19;2.53;;;1.60;;
9968;SDS011;5025;48.890;9.278;2023-11-19T12:20:45;1.60;;;1.50;;
9968;SDS011;5025;48.890;9.278;2023-11-19T12:23:10;2.30;;;1.20;;
9968;SDS011;5025;48.890;9.278;2023-11-19T12:25:36;0.83;;;0.83;;
9968;SDS011;5025;48.890;9.278;2023-11-19T12:28:01;1.80;;;0.90;;
9968;SDS011;5025;48.890;9.278;2023-11-19T12:30:29;1.47;;;1.27;;
9968;SDS011;5025;48.890;9.278;2023-11-19T12:32:55;2.30;;;1.30;;
9968;SDS011;5025;48.890;9.278;2023-11-19T12:35:20;2.60;;;1.53;;
9968;SDS011;5025;48.890;9.278;2023-11-19T12:37:46;2.47;;;1.43;;
9968;SDS011;5025;48.890;9.278;2023-11-19T12:42:53;1.20;;;1.10;;
9968;SDS011;5025;48.890;9.278;2023-11-19T12:45:20;1.47;;;1.10;;
9968;SDS011;5025;48.890;9.278;2023-11-19T12:47:47;1.53;;;1.37;;
9968;SDS011;5025;48.890;9.278;2023-11-19T12:50:13;1.30;;;1.20;;
9968;SDS011;5025;48.890;9.278;2023-11-19T12:52:39;1.27;;;1.07;;
9968;SDS011;5025;48.890;9.278;2023-11-19T12:55:05;1.33;;;1.00;;
9968;SDS011;5025;48.890;9.278;2023-11-19T12:57:49;1.07;;;1.00;;
9968;SDS011;5025;48.890;9.278;2023-11-19T13:00:24;0.80;;;0.80;;
9968;SDS011;5025;48.890;9.278;2023-11-19T13:02:54;2.00;;;0.93;;
9968;SDS011;5025;48.890;9.278;2023-11-19T13:05:24;1.93;;;1.20;;
9968;SDS011;5025;48.890;9.278;2023-11-19T13:08:02;1.77;;;1.10;;
9968;SDS011;5025;48.890;9.278;2023-11-19T13:10:29;1.53;;;0.93;;
9968;SDS011;5025;48.890;9.278;2023-11-19T13:13:03;1.07;;;0.80;;
9968;SDS011;5025;48.890;9.278;2023-11-19T13:15:28;1.10;;;1.00;;
9968;SDS011;5025;48.890;9.278;2023-11-19T13:17:54;1.93;;;1.10;;
9968;SDS011;5025;48.890;9.278;2023-11-19T13:20:19;0.93;;;0.87;;
9968;SDS011;5025;48.890;9.278;2023-11-19T13:22:59;1.10;;;1.00;;
9968;SDS011;5025;48.890;9.278;2023-11-19T13:25:28;1.37;;;0.90;;
9968;SDS011;5025;48.890;9.278;2023-11-19T13:27:54;1.00;;;0.97;;
9968;SDS011;5025;48.890;9.278;2023-11-19T13:30:20;1.37;;;1.27;;
9968;SDS011;5025;48.890;9.278;2023-11-19T13:32:50;1.20;;;0.97;;
9968;SDS011;5025;48.890;9.278;2023-11-19T13:35:16;1.17;;;0.77;;
9968;SDS011;5025;48.890;9.278;2023-11-19T13:37:43;1.23;;;0.70;;
9968;SDS011;5025;48.890;9.278;2023-11-19T13:40:09;0.70;;;0.70;;
9968;SDS011;5025;48.890;9.278;2023-11-19T13:42:38;0.90;;;0.80;;
9968;SDS011;5025;48.890;9.278;2023-11-19T13:45:06;1.17;;;0.70;;
9968;SDS011;5025;48.890;9.278;2023-11-19T13:47:37;0.70;;;0.70;;
9968;SDS011;5025;48.890;9.278;2023-11-19T13:50:06;0.93;;;0.77;;
9968;SDS011;5025;48.890;9.278;2023-11-19T13:52:35;0.60;;;0.60;;
9968;SDS011;5025;48.890;9.278;2023-11-19T13:55:03;1.30;;;0.97;;
9968;SDS011;5025;48.890;9.278;2023-11-19T13:57:30;0.90;;;0.70;;
9968;SDS011;5025;48.890;9.278;2023-11-19T13:59:56;1.90;;;0.80;;
9968;SDS011;5025;48.890;9.278;2023-11-19T14:02:22;0.63;;;0.63;;
9968;SDS011;5025;48.890;9.278;2023-11-19T14:04:47;0.77;;;0.70;;
9968;SDS011;5025;48.890;9.278;2023-11-19T14:07:12;0.70;;;0.70;;
9968;SDS011;5025;48.890;9.278;2023-11-19T14:09:38;1.00;;;0.90;;
9968;SDS011;5025;48.890;9.278;2023-11-19T14:12:03;1.43;;;0.80;;
9968;SDS011;5025;48.890;9.278;2023-11-19T14:14:28;0.97;;;0.77;;
9968;SDS011;5025;48.890;9.278;2023-11-19T14:16:53;1.57;;;0.97;;
9968;SDS011;5025;48.890;9.278;2023-11-19T14:19:19;0.80;;;0.70;;
9968;SDS011;5025;48.890;9.278;2023-11-19T14:21:44;0.67;;;0.60;;
9968;SDS011;5025;48.890;9.278;2023-11-19T14:24:10;0.77;;;0.77;;
9968;SDS011;5025;48.890;9.278;2023-11-19T14:26:35;1.37;;;1.20;;
9968;SDS011;5025;48.890;9.278;2023-11-19T14:29:00;0.90;;;0.80;;
9968;SDS011;5025;48.890;9.278;2023-11-19T14:31:27;1.10;;;1.00;;
9968;SDS011;5025;48.890;9.278;2023-11-19T14:33:53;0.80;;;0.80;;
9968;SDS011;5025;48.890;9.278;2023-11-19T14:36:18;1.70;;;0.73;;
9968;SDS011;5025;48.890;9.278;2023-11-19T14:38:43;1.40;;;0.80;;
9968;SDS011;5025;48.890;9.278;2023-11-19T14:41:09;0.73;;;0.57;;
9968;SDS011;5025;48.890;9.278;2023-11-19T14:43:34;0.70;;;0.70;;
9968;SDS011;5025;48.890;9.278;2023-11-19T14:45:59;0.70;;;0.70;;
9968;SDS011;5025;48.890;9.278;2023-11-19T14:48:25;0.83;;;0.80;;
9968;SDS011;5025;48.890;9.278;2023-11-19T14:50:50;0.93;;;0.80;;
9968;SDS011;5025;48.890;9.278;2023-11-19T14:53:16;0.87;;;0.87;;
9968;SDS011;5025;48.890;9.278;2023-11-19T14:55:42;1.03;;;0.90;;
9968;SDS011;5025;48.890;9.278;2023-11-19T14:58:07;0.80;;;0.80;;
9968;SDS011;5025;48.890;9.278;2023-11-19T15:00:32;0.70;;;0.70;;
9968;SDS011;5025;48.890;9.278;2023-11-19T15:02:58;0.97;;;0.87;;
9968;SDS011;5025;48.890;9.278;2023-11-19T15:05:24;0.87;;;0.87;;
9968;SDS011;5025;48.890;9.278;2023-11-19T15:07:49;0.83;;;0.83;;
9968;SDS011;5025;48.890;9.278;2023-11-19T15:10:14;1.93;;;1.83;;
9968;SDS011;5025;48.890;9.278;2023-11-19T15:12:39;1.00;;;1.00;;
9968;SDS011;5025;48.890;9.278;2023-11-19T15:15:07;1.43;;;1.10;;
9968;SDS011;5025;48.890;9.278;2023-11-19T15:17:34;1.17;;;0.73;;
9968;SDS011;5025;48.890;9.278;2023-11-19T15:20:00;1.10;;;1.00;;
9968;SDS011;5025;48.890;9.278;2023-11-19T15:22:26;1.50;;;1.40;;
9968;SDS011;5025;48.890;9.278;2023-11-19T15:24:51;1.20;;;1.10;;
9968;SDS011;5025;48.890;9.278;2023-11-19T15:27:17;0.97;;;0.97;;
9968;SDS011;5025;48.890;9.278;2023-11-19T15:29:43;0.80;;;0.80;;
9968;SDS011;5025;48.890;9.278;2023-11-19T15:32:08;2.10;;;0.97;;
9968;SDS011;5025;48.890;9.278;2023-11-19T15:34:33;1.10;;;1.00;;